This is the latest recevied weather packets stored in our database for station/object IA5ITY-13. If no packets are shown the sender has not sent any weather packets the latest 10 day(s).
| Time | Temp. | Humidity | Pressure | Rain* | Wind** | Luminosity | Snow |
|---|---|---|---|---|---|---|---|
| 1778081110 | 22.22° C | 80% | 1009.5 hPa | 0 mm | - | - | - |
| 1778080813 | 22.22° C | 82% | 1009.3 hPa | 0 mm | - | - | - |
| 1778079910 | 22.78° C | 78% | 1009.5 hPa | 0 mm | - | - | - |
| 1778079635 | 22.22° C | 85% | 1009.4 hPa | 0 mm | - | - | - |
| 1778079310 | 22.22° C | 91% | 1009.4 hPa | 0 mm | - | - | - |
| 1778079014 | 21.11° C | 92% | 1009.4 hPa | 0 mm | - | - | - |
| 1778078716 | 21.11° C | 90% | 1009.5 hPa | 0 mm | - | - | - |
| 1778078413 | 21.11° C | 93% | 1009.6 hPa | 0 mm | - | - | - |
| 1778078109 | 21.11° C | 99% | 1009.5 hPa | 0 mm | - | - | - |
| 1778077824 | 20° C | 99% | 1009.5 hPa | 0 mm | - | - | - |
| 1778077511 | 20° C | 98% | 1009.5 hPa | 0 mm | - | - | - |
| 1778077214 | 20° C | 98% | 1009.5 hPa | 0 mm | - | - | - |
| 1778076913 | 20° C | 97% | 1009.6 hPa | 0 mm | - | - | - |
| 1778076614 | 21.11° C | 90% | 1009.5 hPa | 0 mm | - | - | - |
| 1778076309 | 22.22° C | 88% | 1009.6 hPa | 0 mm | - | - | - |
| 1778076034 | 21.11° C | 92% | 1009.6 hPa | 0 mm | - | - | - |
| 1778075709 | 22.22° C | 89% | 1009.7 hPa | 0 mm | - | - | - |
| 1778075414 | 21.11° C | 90% | 1009.7 hPa | 0 mm | - | - | - |
| 1778075113 | 21.11° C | 90% | 1009.7 hPa | 0 mm | - | - | - |
| 1778074815 | 22.22° C | 85% | 1009.6 hPa | 0 mm | - | - | - |
| 1778074510 | 22.78° C | 82% | 1009.7 hPa | 0 mm | - | - | - |
| 1778074224 | 22.78° C | 87% | 1009.8 hPa | 0 mm | - | - | - |
| 1778073910 | 22.78° C | 92% | 1009.8 hPa | 0 mm | - | - | - |
| 1778073614 | 21.11° C | 93% | 1009.7 hPa | 0 mm | - | - | - |
| 1778073313 | 22.22° C | 88% | 1009.8 hPa | 0 mm | - | - | - |
* Rain latest hour (hover to see other rain measurements)
** Current wind speed in m/s (hover to see current wind gust speed)